Strona główna
METAR-TAF:

METAR-TAF

Lotnisko :

Port lotniczy Genewa-Cointrin

Genewa, Szwajcaria

Szerokość geograficzna: 46-15N, Długość geograficzna: 006-08E, wysokość: 420 m

Aktualna obserwacja pogody

Raport powstał 28 minut temu, godzina 03:20 UTC
Wiatr 4 kt od zachodnio-południowy zachód
Temperatura 3°C
Wilgotność 93%
Ciśnienie 1011 hPa
Widzialność 10 km lub więcej
Rozproszone chmury na wysokości 5000 ft

METAR: LSGG 120320Z AUTO 25004KT 9999 SCT050 03/02 Q1011 NOSIG

czas: 04:48 (03:48 UTC)

Prognoza

Raport powstał 1 godzina i 23 minut temu, godzina 02:25 UTC
Prognoza ważna od 12 godzina 03 UTC do 13 godzina 09 UTC
Wiatr 5 kt od zachodnio-południowy zachód
Widzialność 10 km lub więcej
Mało chmury na wysokości 4500 ft

TAF: LSGG 120225Z 1203/1309 25005KT 9999 FEW045 TX09/1214Z TN02/1206Z TN01/1306Z

Obserwacja i prognoza pogody dla ponad 4000 lotnisk (raport METAR i TAF).

Dostępne stacje oznaczono żółtymi i czerwonymi punktami na mapie.

Najedź kursorem aby zobaczyć nazwę stacji.

Kliknij aby zobaczyć obserwacje i prognozy pogody.

Aby zmienić mapę: kliknij na zielony przycisk z czarnym krzyżykiem, aby powiększyć; na zielony przycisk z myślnikiem, aby pomniejszyć; na zielone strzałki, aby przejść do map sąsiednich.


METAR-TAF: